createdAt,value
2019-01-04T00:01:29.912Z,5.70
2019-01-04T00:04:34.203Z,7.80
2019-01-04T00:07:38.802Z,7.27
2019-01-04T00:10:43.122Z,6.60
2019-01-04T00:13:47.454Z,5.90
2019-01-04T00:16:51.768Z,4.83
2019-01-04T00:19:56.104Z,9.90
2019-01-04T00:23:00.433Z,8.30
2019-01-04T00:26:05.100Z,5.87
2019-01-04T00:29:09.633Z,9.43
2019-01-04T00:32:13.934Z,3.53
2019-01-04T00:35:18.303Z,5.10
2019-01-04T00:38:22.564Z,4.20
2019-01-04T00:41:26.907Z,18.93
2019-01-04T00:44:31.212Z,5.73
2019-01-04T00:47:35.559Z,3.67
2019-01-04T00:50:39.874Z,6.10
2019-01-04T00:53:44.231Z,4.20
2019-01-04T00:57:21.737Z,4.07
2019-01-04T01:01:05.984Z,3.70
2019-01-04T01:04:57.454Z,7.07
2019-01-04T01:08:41.402Z,4.67
2019-01-04T01:12:21.292Z,6.93
2019-01-04T01:16:05.251Z,4.43
2019-01-04T01:19:32.933Z,4.27
2019-01-04T01:23:29.794Z,4.40
2019-01-04T01:27:44.999Z,2.90
2019-01-04T01:31:28.953Z,7.17
2019-01-04T01:35:15.064Z,6.27
2019-01-04T01:38:59.478Z,4.10
2019-01-04T01:42:49.337Z,5.80
2019-01-04T01:46:34.879Z,6.60
2019-01-04T01:50:16.314Z,4.80
2019-01-04T01:53:20.487Z,11.13
2019-01-04T01:56:24.869Z,4.67
2019-01-04T01:59:29.322Z,9.13
2019-01-04T02:02:33.588Z,10.70
2019-01-04T02:05:38.048Z,12.90
2019-01-04T02:08:42.337Z,15.93
2019-01-04T02:11:46.656Z,12.90
2019-01-04T02:14:51.083Z,14.10
2019-01-04T02:17:55.397Z,13.80
2019-01-04T02:20:59.777Z,22.67
2019-01-04T02:24:04.077Z,18.43
2019-01-04T02:27:08.369Z,13.70
2019-01-04T02:30:12.716Z,12.90
2019-01-04T02:33:17.107Z,10.20
2019-01-04T02:36:21.427Z,14.80
2019-01-04T02:39:25.734Z,14.57
2019-01-04T02:42:30.058Z,13.23
2019-01-04T02:45:34.377Z,14.03
2019-01-04T02:48:38.714Z,12.53
2019-01-04T02:51:42.992Z,12.63
2019-01-04T02:54:47.331Z,9.27
2019-01-04T02:57:51.695Z,11.30
2019-01-04T03:00:56.082Z,8.13
2019-01-04T03:04:00.386Z,11.00
2019-01-04T03:07:04.756Z,6.97
2019-01-04T03:10:09.411Z,14.37
2019-01-04T03:13:13.704Z,4.43
2019-01-04T03:16:18.061Z,8.73
2019-01-04T03:19:22.388Z,12.00
2019-01-04T03:22:26.771Z,10.83
2019-01-04T03:25:31.058Z,11.23
2019-01-04T03:28:35.338Z,6.70
2019-01-04T03:31:39.609Z,6.10
2019-01-04T03:34:43.881Z,15.07
2019-01-04T03:37:48.207Z,6.73
2019-01-04T03:40:52.521Z,12.40
2019-01-04T03:43:56.838Z,6.77
2019-01-04T03:47:01.131Z,11.23
2019-01-04T03:50:05.679Z,4.17
2019-01-04T03:53:09.946Z,9.00
2019-01-04T03:56:14.239Z,9.37
2019-01-04T03:59:18.509Z,18.57
2019-01-04T04:02:22.836Z,6.67
2019-01-04T04:05:27.216Z,9.27
2019-01-04T04:08:31.501Z,7.00
2019-01-04T04:11:35.839Z,8.90
2019-01-04T04:14:40.213Z,10.07
2019-01-04T04:17:44.461Z,9.83
2019-01-04T04:20:48.771Z,14.43
2019-01-04T04:23:53.106Z,13.97
2019-01-04T04:26:57.430Z,13.90
2019-01-04T04:30:01.834Z,14.53
2019-01-04T04:33:06.221Z,15.57
2019-01-04T04:36:10.518Z,18.40
2019-01-04T04:39:14.781Z,15.63
2019-01-04T04:42:19.043Z,13.70
2019-01-04T04:45:23.347Z,14.30
2019-01-04T04:48:27.646Z,18.70
2019-01-04T04:51:32.026Z,14.40
2019-01-04T04:54:36.355Z,18.43
2019-01-04T04:57:40.633Z,20.23
2019-01-04T05:00:45.073Z,19.23
2019-01-04T05:03:49.341Z,22.33
2019-01-04T05:06:53.657Z,19.67
2019-01-04T05:09:58.081Z,26.83
2019-01-04T05:13:02.406Z,27.63
2019-01-04T05:16:06.752Z,21.43
2019-01-04T05:19:11.048Z,18.43
2019-01-04T05:22:15.362Z,21.40
2019-01-04T05:25:19.696Z,19.40
2019-01-04T05:28:24.050Z,17.00
2019-01-04T05:31:28.411Z,16.40
2019-01-04T05:34:32.663Z,15.97
2019-01-04T05:37:37.027Z,16.43
2019-01-04T05:40:41.316Z,20.10
2019-01-04T05:43:45.713Z,20.33
2019-01-04T05:46:50.070Z,18.00
2019-01-04T05:49:54.438Z,16.93
2019-01-04T05:52:58.702Z,16.40
2019-01-04T05:56:03.023Z,19.20
2019-01-04T05:59:07.361Z,15.23
2019-01-04T06:02:12.046Z,19.97
2019-01-04T06:05:16.307Z,18.87
2019-01-04T06:08:20.616Z,20.13
2019-01-04T06:11:24.918Z,15.10
2019-01-04T06:14:29.336Z,22.90
2019-01-04T06:17:33.643Z,16.37
2019-01-04T06:20:37.905Z,16.93
2019-01-04T06:23:42.211Z,17.83
2019-01-04T06:26:46.497Z,15.00
2019-01-04T06:29:50.737Z,16.13
2019-01-04T06:32:55.198Z,18.93
2019-01-04T06:35:59.585Z,19.13
2019-01-04T06:39:05.250Z,13.87
2019-01-04T06:42:09.568Z,14.70
2019-01-04T06:45:14.015Z,19.83
2019-01-04T06:48:18.323Z,10.53
2019-01-04T06:51:27.737Z,9.77
2019-01-04T06:55:04.025Z,10.70
2019-01-04T06:58:08.474Z,11.57
2019-01-04T07:01:12.921Z,8.87
2019-01-04T07:04:18.492Z,10.10
2019-01-04T07:07:22.867Z,16.63
2019-01-04T07:10:27.160Z,12.97
2019-01-04T07:13:31.451Z,15.03
2019-01-04T07:16:35.818Z,15.60
2019-01-04T07:19:40.141Z,15.20
2019-01-04T07:22:44.561Z,16.03
2019-01-04T07:25:48.848Z,23.07
2019-01-04T07:28:53.080Z,18.60
2019-01-04T07:31:57.439Z,17.37
2019-01-04T07:35:03.375Z,16.80
2019-01-04T07:38:07.829Z,17.50
2019-01-04T07:41:12.220Z,22.77
2019-01-04T07:44:16.537Z,18.00
2019-01-04T07:47:21.035Z,19.60
2019-01-04T07:50:25.334Z,18.80
2019-01-04T07:53:31.786Z,21.90
2019-01-04T07:56:36.081Z,17.70
2019-01-04T07:59:40.390Z,20.27
2019-01-04T08:02:49.277Z,20.87
2019-01-04T08:05:58.543Z,22.00
2019-01-04T08:09:04.205Z,18.77
2019-01-04T08:12:08.526Z,20.70
2019-01-04T08:15:13.144Z,21.00
2019-01-04T08:18:17.510Z,22.00
2019-01-04T08:21:21.792Z,13.60
2019-01-04T08:24:26.056Z,13.40
2019-01-04T08:27:30.374Z,12.83
2019-01-04T08:30:34.680Z,14.50
2019-01-04T08:33:38.981Z,11.47
2019-01-04T08:36:43.321Z,12.10
2019-01-04T08:39:47.641Z,9.47
2019-01-04T08:42:51.942Z,11.70
2019-01-04T08:45:56.211Z,9.23
2019-01-04T08:49:00.525Z,8.53
2019-01-04T08:52:04.850Z,11.00
2019-01-04T08:55:23.804Z,7.97
2019-01-04T08:58:28.121Z,8.17
2019-01-04T09:01:32.356Z,8.47
2019-01-04T09:04:36.682Z,9.03
2019-01-04T09:07:40.995Z,6.97
2019-01-04T09:10:45.295Z,4.57
2019-01-04T09:13:49.562Z,10.23
2019-01-04T09:16:53.912Z,7.00
2019-01-04T09:19:58.171Z,4.33
2019-01-04T09:23:04.021Z,9.93
2019-01-04T09:26:08.285Z,8.50
2019-01-04T09:29:12.562Z,7.80
2019-01-04T09:32:16.861Z,4.37
2019-01-04T09:35:21.161Z,6.33
2019-01-04T09:38:25.406Z,5.40
2019-01-04T09:41:32.440Z,4.30
2019-01-04T09:44:36.790Z,4.27
2019-01-04T09:47:41.092Z,7.77
2019-01-04T09:50:45.426Z,5.63
2019-01-04T09:53:49.832Z,4.40
2019-01-04T09:56:54.140Z,4.03
2019-01-04T09:59:58.410Z,4.50
2019-01-04T10:03:02.780Z,5.50
2019-01-04T10:06:09.542Z,6.73
2019-01-04T10:09:13.821Z,5.50
2019-01-04T10:12:18.093Z,4.40
2019-01-04T10:15:22.376Z,3.17
2019-01-04T10:18:26.697Z,4.30
2019-01-04T10:21:30.926Z,4.90
2019-01-04T10:24:35.225Z,3.40
2019-01-04T10:27:39.544Z,3.20
2019-01-04T10:30:43.795Z,6.57
2019-01-04T10:33:48.085Z,4.40
2019-01-04T10:36:52.886Z,3.97
2019-01-04T10:39:57.196Z,5.43
2019-01-04T10:43:01.664Z,9.27
2019-01-04T10:46:06.042Z,3.40
2019-01-04T10:49:10.810Z,3.87
2019-01-04T10:52:15.186Z,3.03
2019-01-04T10:55:19.526Z,3.87
2019-01-04T10:58:23.820Z,3.87
2019-01-04T11:01:28.127Z,5.03
2019-01-04T11:04:32.693Z,6.17
2019-01-04T11:07:37.074Z,3.63
2019-01-04T11:10:41.401Z,8.83
2019-01-04T11:13:45.667Z,7.10
2019-01-04T11:16:49.964Z,9.50
2019-01-04T11:19:54.308Z,5.50
2019-01-04T11:23:05.586Z,8.40
2019-01-04T11:26:23.533Z,7.63
2019-01-04T11:30:03.360Z,8.80
2019-01-04T11:33:25.060Z,9.03
2019-01-04T11:36:39.380Z,5.60
2019-01-04T11:40:07.766Z,11.93
2019-01-04T11:43:45.926Z,9.17
2019-01-04T11:47:00.061Z,10.50
2019-01-04T11:50:45.314Z,9.13
2019-01-04T11:53:49.681Z,11.90
2019-01-04T11:56:54.399Z,12.13
2019-01-04T11:59:59.561Z,11.50
2019-01-04T12:03:03.940Z,9.23
2019-01-04T12:06:08.338Z,12.20
2019-01-04T12:09:12.611Z,19.90
2019-01-04T12:12:16.931Z,8.30
2019-01-04T12:15:21.248Z,12.50
2019-01-04T12:18:25.556Z,8.23
2019-01-04T12:21:29.859Z,15.10
2019-01-04T12:24:34.157Z,10.57
2019-01-04T12:27:38.481Z,13.70
2019-01-04T12:30:42.764Z,13.40
2019-01-04T12:33:47.075Z,11.60
2019-01-04T12:36:51.466Z,13.07
2019-01-04T12:39:55.799Z,17.83
2019-01-04T12:43:00.134Z,11.30
2019-01-04T12:46:04.419Z,13.10
2019-01-04T12:49:08.746Z,15.03
2019-01-04T12:52:13.134Z,11.07
2019-01-04T12:55:17.434Z,13.50
2019-01-04T12:58:21.725Z,11.97
2019-01-04T13:01:26.094Z,20.83
2019-01-04T13:04:30.434Z,10.30
2019-01-04T13:07:34.840Z,32.93
2019-01-04T13:10:39.153Z,42.13
2019-01-04T13:13:43.464Z,12.83
2019-01-04T13:16:47.784Z,14.43
2019-01-04T13:19:52.050Z,15.23
2019-01-04T13:22:56.363Z,12.47
2019-01-04T13:26:00.663Z,16.80
2019-01-04T13:29:04.944Z,12.27
2019-01-04T13:32:09.338Z,18.20
2019-01-04T13:35:13.655Z,19.50
2019-01-04T13:38:20.139Z,15.43
2019-01-04T13:41:24.078Z,13.43
2019-01-04T13:44:28.465Z,15.80
2019-01-04T13:47:32.782Z,16.97
2019-01-04T13:50:37.138Z,18.40
2019-01-04T13:53:41.433Z,18.20
2019-01-04T13:56:45.781Z,15.23
2019-01-04T13:59:50.211Z,17.60
2019-01-04T14:02:54.490Z,17.80
2019-01-04T14:05:58.774Z,16.67
2019-01-04T14:09:03.997Z,17.53
2019-01-04T14:12:08.345Z,11.90
2019-01-04T14:15:12.730Z,18.03
2019-01-04T14:18:17.020Z,14.10
2019-01-04T14:21:21.379Z,15.90
2019-01-04T14:24:25.633Z,17.73
2019-01-04T14:27:30.049Z,12.43
2019-01-04T14:30:34.602Z,19.30
2019-01-04T14:33:38.874Z,12.07
2019-01-04T14:36:43.199Z,17.17
2019-01-04T14:39:47.483Z,18.57
2019-01-04T14:42:51.764Z,17.47
2019-01-04T14:45:56.035Z,12.77
2019-01-04T14:49:00.320Z,19.37
2019-01-04T14:52:04.530Z,17.07
2019-01-04T14:55:08.914Z,12.97
2019-01-04T14:58:13.308Z,15.20
2019-01-04T15:01:17.730Z,15.20
2019-01-04T15:04:22.023Z,17.90
2019-01-04T15:07:26.408Z,13.83
2019-01-04T15:10:30.709Z,18.00
2019-01-04T15:13:35.105Z,12.00
2019-01-04T15:16:39.441Z,9.60
2019-01-04T15:19:43.737Z,14.43
2019-01-04T15:22:48.154Z,10.63
2019-01-04T15:25:52.489Z,11.43
2019-01-04T15:28:56.763Z,9.97
2019-01-04T15:32:02.261Z,11.00
2019-01-04T15:35:06.628Z,11.93
2019-01-04T15:38:12.421Z,13.57
2019-01-04T15:41:16.710Z,10.90
2019-01-04T15:44:21.155Z,11.80
2019-01-04T15:47:25.394Z,17.27
2019-01-04T15:50:29.713Z,9.87
2019-01-04T15:53:34.150Z,12.43
2019-01-04T15:56:38.614Z,14.03
2019-01-04T15:59:42.900Z,17.47
2019-01-04T16:02:47.360Z,15.53
2019-01-04T16:05:51.630Z,13.77
2019-01-04T16:08:55.965Z,15.43
2019-01-04T16:12:00.239Z,13.37
2019-01-04T16:15:06.512Z,12.87
2019-01-04T16:18:10.897Z,12.83
2019-01-04T16:21:15.220Z,14.77
2019-01-04T16:24:19.528Z,15.57
2019-01-04T16:27:23.852Z,13.90
2019-01-04T16:33:46.199Z,19.50
2019-01-04T16:36:50.597Z,17.13
2019-01-04T16:39:57.533Z,21.27
2019-01-04T16:43:04.963Z,24.77
2019-01-04T16:46:08.302Z,15.93
2019-01-04T16:49:12.659Z,19.77
2019-01-04T16:52:17.039Z,17.20
2019-01-04T16:55:23.818Z,12.77
2019-01-04T16:58:28.570Z,18.77
2019-01-04T17:01:33.077Z,14.60
2019-01-04T17:04:37.395Z,15.07
2019-01-04T17:07:41.812Z,19.27
2019-01-04T17:10:46.108Z,17.50
2019-01-04T17:13:50.509Z,22.83
2019-01-04T17:16:54.832Z,18.40
2019-01-04T17:20:01.417Z,18.03
2019-01-04T17:23:05.749Z,19.27
2019-01-04T17:26:10.069Z,19.57
2019-01-04T17:29:14.480Z,18.97
2019-01-04T17:32:18.798Z,17.07
2019-01-04T17:35:23.144Z,23.50
2019-01-04T17:38:30.100Z,18.57
2019-01-04T17:41:34.446Z,16.97
2019-01-04T17:44:38.717Z,20.47
2019-01-04T17:47:43.173Z,16.63
2019-01-04T17:50:47.469Z,14.97
2019-01-04T17:53:51.768Z,29.60
2019-01-04T17:56:56.078Z,23.60
2019-01-04T18:00:00.394Z,16.73
2019-01-04T18:03:06.718Z,24.33
2019-01-04T18:06:11.048Z,14.57
2019-01-04T18:09:15.335Z,20.53
2019-01-04T18:12:19.648Z,22.50
2019-01-04T18:15:25.072Z,16.80
2019-01-04T18:18:29.399Z,21.90
2019-01-04T18:21:33.855Z,19.03
2019-01-04T18:24:38.174Z,19.37
2019-01-04T18:27:42.609Z,22.47
2019-01-04T18:30:47.000Z,19.10
2019-01-04T18:33:51.378Z,16.97
2019-01-04T18:36:55.862Z,20.37
2019-01-04T18:40:00.377Z,16.00
2019-01-04T18:43:04.863Z,23.00
2019-01-04T18:46:09.290Z,16.63
2019-01-04T18:49:13.632Z,27.97
2019-01-04T18:52:18.056Z,20.70
2019-01-04T18:55:22.412Z,17.33
2019-01-04T18:58:26.730Z,19.30
2019-01-04T19:01:31.005Z,20.17
2019-01-04T19:04:37.186Z,19.63
2019-01-04T19:07:41.437Z,16.23
2019-01-04T19:10:45.873Z,21.20
2019-01-04T19:13:50.171Z,15.90
2019-01-04T19:16:54.502Z,12.33
2019-01-04T19:19:58.907Z,18.23
2019-01-04T19:23:03.329Z,12.90
2019-01-04T19:26:07.612Z,13.43
2019-01-04T19:29:12.004Z,13.40
2019-01-04T19:32:16.278Z,15.30
2019-01-04T19:35:20.633Z,14.60
2019-01-04T19:38:24.893Z,15.57
2019-01-04T19:41:29.254Z,13.83
2019-01-04T19:44:33.567Z,9.17
2019-01-04T19:47:37.864Z,11.47
2019-01-04T19:50:42.210Z,14.13
2019-01-04T19:53:46.543Z,16.40
2019-01-04T19:56:50.876Z,19.10
2019-01-04T19:59:55.343Z,14.67
2019-01-04T20:02:59.598Z,13.73
2019-01-04T20:07:17.706Z,17.23
2019-01-04T20:11:06.879Z,13.40
2019-01-04T20:15:05.608Z,10.33
2019-01-04T20:18:34.506Z,15.30
2019-01-04T20:22:10.052Z,11.80
2019-01-04T20:25:45.251Z,15.60
2019-01-04T20:29:22.137Z,11.80
2019-01-04T20:32:58.946Z,9.70
2019-01-04T20:36:20.599Z,7.80
2019-01-04T20:39:49.914Z,8.70
2019-01-04T20:43:05.499Z,9.63
2019-01-04T20:46:28.543Z,7.60
2019-01-04T20:49:50.442Z,6.30
2019-01-04T20:53:19.878Z,8.33
2019-01-04T20:56:44.357Z,10.67
2019-01-04T21:00:10.373Z,11.13
2019-01-04T21:03:42.852Z,8.07
2019-01-04T21:07:00.677Z,11.80
2019-01-04T21:10:35.263Z,8.77
2019-01-04T21:14:04.367Z,8.43
2019-01-04T21:17:50.490Z,9.90
2019-01-04T21:21:06.604Z,8.70
2019-01-04T21:24:26.837Z,9.07
2019-01-04T21:27:44.877Z,13.17
2019-01-04T21:31:26.079Z,9.93
2019-01-04T21:34:48.002Z,11.73
2019-01-04T21:38:09.634Z,11.80
2019-01-04T21:41:32.842Z,8.20
2019-01-04T21:45:07.975Z,10.07
2019-01-04T21:48:29.973Z,8.47
2019-01-04T21:51:56.377Z,8.50
2019-01-04T21:55:18.226Z,8.37
2019-01-04T21:58:40.111Z,10.40
2019-01-04T22:02:08.983Z,8.43
2019-01-04T22:05:30.623Z,10.90
2019-01-04T22:08:56.566Z,14.13
2019-01-04T22:12:29.069Z,13.87
2019-01-04T22:15:50.664Z,10.43
2019-01-04T22:19:19.922Z,12.60
2019-01-04T22:22:47.634Z,13.10
2019-01-04T22:26:09.675Z,14.50
2019-01-04T22:29:31.762Z,16.00
2019-01-04T22:33:01.259Z,11.83
2019-01-04T22:36:16.272Z,12.30
2019-01-04T22:39:37.933Z,14.03
2019-01-04T22:43:04.148Z,13.40
2019-01-04T22:46:26.091Z,10.23
2019-01-04T22:50:07.267Z,10.63
2019-01-04T22:53:31.267Z,11.60
2019-01-04T22:56:54.582Z,10.53
2019-01-04T23:00:16.206Z,13.60
2019-01-04T23:03:51.366Z,12.47
2019-01-04T23:07:13.312Z,11.10
2019-01-04T23:10:48.806Z,7.57
2019-01-04T23:14:10.507Z,13.07
2019-01-04T23:17:34.771Z,14.23
2019-01-04T23:21:07.185Z,10.37
2019-01-04T23:24:33.402Z,12.93
2019-01-04T23:28:11.543Z,13.40
2019-01-04T23:31:33.359Z,10.07
2019-01-04T23:35:11.947Z,15.13
2019-01-04T23:38:30.191Z,9.13
2019-01-04T23:41:55.445Z,15.80
2019-01-04T23:45:18.683Z,11.40
2019-01-04T23:48:40.703Z,11.43
2019-01-04T23:52:02.295Z,12.87
2019-01-04T23:55:24.137Z,10.97
2019-01-04T23:59:02.301Z,9.60
